Time;durP1;ratioP1;P1;durP2;ratioP2;P2;SDS_P1;SDS_P2;PMS_P1;PMS_P2;Temp;Humidity;BMP_temperature;BMP_pressure;BME280_temperature;BME280_humidity;BME280_pressure;Samples;Min_cycle;Max_cycle;Signal;HPM_P1;HPM_P2
2023/12/27 00:02:27;;;;;;;24.02;8.35;;;;;;;6.37;98.14;101149.38;8281484;28;20706;-55
2023/12/27 00:06:28;;;;;;;25.23;5.47;;;;;;;6.46;98.18;101154.16;8293448;28;20036;-56
2023/12/27 00:10:28;;;;;;;21.38;4.53;;;;;;;6.58;97.69;101158.75;8326084;28;20696;-55
2023/12/27 00:14:29;;;;;;;23.25;5.50;;;;;;;6.50;97.73;101150.34;8280192;28;20795;-56
2023/12/27 00:18:30;;;;;;;19.83;9.10;;;;;;;6.51;97.25;101141.31;8289692;28;20059;-55
2023/12/27 00:22:30;;;;;;;26.20;8.50;;;;;;;6.44;97.56;101142.69;8287393;28;20029;-56
2023/12/27 00:26:30;;;;;;;26.38;5.22;;;;;;;6.41;98.10;101148.25;8286047;28;20455;-55
2023/12/27 00:30:33;;;;;;;19.75;4.50;;;;;;;6.39;97.76;101142.09;8245047;28;20049;-56
2023/12/27 00:34:34;;;;;;;36.17;11.10;;;;;;;6.32;97.69;101146.16;8246313;28;20352;-54
2023/12/27 00:38:36;;;;;;;18.92;7.10;;;;;;;6.19;97.57;101144.34;8262182;28;20399;-55
2023/12/27 00:42:36;;;;;;;27.70;10.82;;;;;;;6.19;98.47;101139.81;8289615;28;20048;-55
2023/12/27 00:46:37;;;;;;;21.65;4.72;;;;;;;6.28;98.57;101141.09;8244410;28;20255;-55
2023/12/27 00:50:38;;;;;;;17.67;4.53;;;;;;;6.28;98.47;101133.88;8244829;28;20185;-53
2023/12/27 00:54:38;;;;;;;23.08;5.10;;;;;;;6.26;97.90;101135.81;8301880;28;20091;-56
2023/12/27 00:58:38;;;;;;;21.88;5.82;;;;;;;6.22;98.60;101136.94;8288517;28;20073;-54
2023/12/27 01:02:39;;;;;;;22.65;5.68;;;;;;;6.22;98.37;101139.63;8330942;28;20039;-55
2023/12/27 01:06:40;;;;;;;23.13;7.10;;;;;;;6.22;98.32;101120.00;8285889;28;20167;-55
2023/12/27 01:10:40;;;;;;;17.83;5.18;;;;;;;6.23;98.79;101124.38;8292480;28;20275;-54
2023/12/27 01:14:41;;;;;;;16.70;5.20;;;;;;;6.31;99.02;101133.66;8294387;28;20609;-56
2023/12/27 01:18:41;;;;;;;16.63;5.28;;;;;;;6.33;98.68;101131.75;8296792;28;20163;-55
2023/12/27 01:22:42;;;;;;;19.13;5.32;;;;;;;6.39;99.01;101112.56;8300524;28;20244;-54
2023/12/27 01:26:42;;;;;;;19.33;6.35;;;;;;;6.50;98.88;101110.06;8296973;28;20044;-54
2023/12/27 01:30:43;;;;;;;19.48;5.13;;;;;;;6.62;98.93;101113.75;8284608;28;20033;-54
2023/12/27 01:34:43;;;;;;;18.98;5.93;;;;;;;6.66;98.34;101110.75;8285131;28;20428;-53
2023/12/27 01:38:43;;;;;;;17.02;5.88;;;;;;;6.71;97.88;101116.66;8288190;28;20045;-57
2023/12/27 01:42:44;;;;;;;14.07;4.70;;;;;;;6.75;97.77;101111.97;8285333;28;20064;-55
2023/12/27 01:46:44;;;;;;;13.60;3.75;;;;;;;6.75;97.54;101109.28;8287143;28;20438;-55
2023/12/27 01:50:49;;;;;;;16.70;4.43;;;;;;;6.78;97.21;101118.00;8287163;28;20500;-55
2023/12/27 01:54:49;;;;;;;19.48;4.85;;;;;;;6.67;97.57;101116.97;8308759;28;20037;-55
2023/12/27 01:58:50;;;;;;;16.38;4.82;;;;;;;6.65;97.99;101113.56;8282635;28;20051;-57
2023/12/27 02:02:51;;;;;;;13.63;3.90;;;;;;;6.66;97.86;101109.88;8289622;28;20422;-56
2023/12/27 02:06:52;;;;;;;16.70;4.53;;;;;;;6.62;98.39;101100.31;8285572;28;20067;-56
2023/12/27 02:10:52;;;;;;;10.27;4.22;;;;;;;6.52;98.25;101099.22;8284497;28;20057;-57
2023/12/27 02:14:53;;;;;;;18.92;5.47;;;;;;;6.50;98.90;101109.19;8284962;28;20267;-54
2023/12/27 02:18:54;;;;;;;13.07;4.15;;;;;;;6.50;99.46;101096.63;8288050;28;20064;-54
2023/12/27 02:22:56;;;;;;;14.88;4.50;;;;;;;6.42;99.39;101104.31;8285677;28;20051;-54
2023/12/27 02:26:57;;;;;;;17.58;4.78;;;;;;;6.44;99.60;101107.78;8338097;28;20037;-55
2023/12/27 02:30:57;;;;;;;15.07;4.25;;;;;;;6.57;99.60;101108.69;8338315;28;20044;-55
2023/12/27 02:34:57;;;;;;;21.20;4.55;;;;;;;6.59;99.10;101092.47;8341543;28;20404;-53
2023/12/27 02:38:58;;;;;;;21.83;5.05;;;;;;;6.59;99.43;101085.25;8337792;28;20058;-53
2023/12/27 02:42:58;;;;;;;22.17;5.40;;;;;;;6.64;98.93;101088.50;8337126;28;20518;-55
2023/12/27 02:47:01;;;;;;;15.68;5.15;;;;;;;6.55;99.21;101083.72;8339657;28;20041;-54
2023/12/27 02:51:02;;;;;;;25.17;4.97;;;;;;;6.61;99.06;101072.59;8339108;28;20451;-54
2023/12/27 02:55:02;;;;;;;19.05;4.30;;;;;;;6.57;98.79;101068.38;8338520;28;20055;-55
2023/12/27 02:59:03;;;;;;;12.45;4.18;;;;;;;6.55;99.52;101073.00;8337108;28;20541;-55
2023/12/27 03:03:03;;;;;;;15.27;4.53;;;;;;;6.57;99.84;101060.34;8302300;28;20386;-54
2023/12/27 03:07:04;;;;;;;20.77;5.13;;;;;;;6.50;100.00;101048.28;8282553;28;20386;-55
2023/12/27 03:11:06;;;;;;;23.38;5.35;;;;;;;6.51;100.00;101047.31;8283017;28;20108;-54
2023/12/27 03:15:07;;;;;;;14.02;4.35;;;;;;;6.55;99.63;101053.31;8282907;28;20385;-51
2023/12/27 03:19:08;;;;;;;14.27;3.88;;;;;;;6.61;100.00;101040.34;8285591;28;20306;-54
2023/12/27 03:23:08;;;;;;;15.95;4.95;;;;;;;6.87;99.65;101026.03;8281168;28;20041;-56
2023/12/27 03:27:09;;;;;;;13.02;4.35;;;;;;;6.88;99.56;101033.13;8283450;28;20033;-55
2023/12/27 03:31:09;;;;;;;13.02;4.50;;;;;;;6.97;99.53;101021.72;8318820;28;20045;-55
2023/12/27 03:35:10;;;;;;;17.50;4.32;;;;;;;6.97;99.73;101010.97;8300540;28;20491;-54
2023/12/27 03:39:12;;;;;;;14.07;3.58;;;;;;;7.09;99.17;101009.25;8283150;28;20233;-55
2023/12/27 03:43:13;;;;;;;13.07;4.10;;;;;;;7.12;99.39;101004.56;8283455;28;20048;-54
2023/12/27 03:47:13;;;;;;;19.27;4.82;;;;;;;7.11;99.24;100986.69;8282522;28;20045;-54
2023/12/27 03:51:14;;;;;;;13.00;4.40;;;;;;;7.15;99.63;100990.03;8284019;28;20178;-55
2023/12/27 03:55:14;;;;;;;13.60;4.07;;;;;;;7.24;99.80;100982.19;8283827;28;20495;-55
2023/12/27 03:59:15;;;;;;;15.93;4.43;;;;;;;7.38;99.85;100982.03;8283524;28;20182;-56
2023/12/27 04:03:15;;;;;;;11.68;3.55;;;;;;;7.46;99.88;100977.00;8320710;28;20056;-55
2023/12/27 04:07:16;;;;;;;20.42;4.13;;;;;;;7.42;100.00;100966.56;8332563;28;20080;-55
2023/12/27 04:11:16;;;;;;;13.23;4.60;;;;;;;7.49;100.00;100959.75;8335355;28;20037;-55
2023/12/27 04:15:17;;;;;;;14.75;3.85;;;;;;;7.52;100.00;100976.56;8336711;28;20164;-54
2023/12/27 04:19:18;;;;;;;13.38;4.18;;;;;;;7.62;100.00;100972.22;8338265;28;20458;-56
2023/12/27 04:23:19;;;;;;;17.27;4.68;;;;;;;7.71;100.00;100955.41;8333968;28;20041;-58
2023/12/27 04:27:19;;;;;;;13.65;5.25;;;;;;;7.87;100.00;100950.63;8336263;28;20273;-55
2023/12/27 04:31:19;;;;;;;18.80;5.88;;;;;;;8.01;100.00;100953.16;8311299;28;20068;-53
2023/12/27 04:35:20;;;;;;;16.45;4.32;;;;;;;8.09;100.00;100942.66;8281149;28;20316;-55
2023/12/27 04:39:22;;;;;;;16.52;4.38;;;;;;;8.18;100.00;100929.50;8281810;28;20181;-54
2023/12/27 04:43:23;;;;;;;16.00;4.13;;;;;;;8.20;100.00;100924.84;8282117;28;20045;-55
2023/12/27 04:47:27;;;;;;;14.02;4.63;;;;;;;8.22;100.00;100933.66;8286270;28;20347;-58
2023/12/27 04:51:27;;;;;;;19.00;4.90;;;;;;;8.30;99.53;100936.69;8280085;28;20033;-56
2023/12/27 04:55:28;;;;;;;9.63;4.35;;;;;;;8.33;99.32;100936.44;8283930;28;20068;-55
2023/12/27 04:59:30;;;;;;;9.35;4.53;;;;;;;8.37;99.55;100927.16;8308077;28;20191;-56
2023/12/27 05:03:35;;;;;;;11.75;5.00;;;;;;;8.35;99.48;100926.44;8330359;28;20037;-57
2023/12/27 05:07:35;;;;;;;13.38;4.35;;;;;;;8.39;99.05;100930.59;8339127;28;20064;-56
2023/12/27 05:11:36;;;;;;;20.35;4.80;;;;;;;8.49;99.05;100939.69;8343781;28;20522;-60
2023/12/27 05:15:37;;;;;;;17.88;5.43;;;;;;;8.51;98.93;100941.28;8348034;28;20064;-60
2023/12/27 05:19:38;;;;;;;21.65;4.85;;;;;;;8.51;99.45;100935.06;8342452;28;20037;-57
2023/12/27 05:23:39;;;;;;;14.38;5.13;;;;;;;8.50;99.48;100931.50;8344971;28;20049;-57
2023/12/27 05:27:39;;;;;;;15.88;4.47;;;;;;;8.55;99.24;100928.44;8339263;28;20048;-58
2023/12/27 05:31:40;;;;;;;16.63;5.05;;;;;;;8.51;100.00;100919.72;8340081;28;20120;-61
2023/12/27 05:35:40;;;;;;;12.98;4.75;;;;;;;8.56;100.00;100901.38;8332941;28;20097;-57
2023/12/27 05:39:42;;;;;;;11.13;4.40;;;;;;;8.53;100.00;100896.22;8349298;28;20048;-59
2023/12/27 05:43:42;;;;;;;10.07;3.85;;;;;;;8.55;99.75;100898.81;8341336;28;20107;-57
2023/12/27 05:47:43;;;;;;;14.25;4.05;;;;;;;8.58;99.69;100898.56;8345185;28;20491;-63
2023/12/27 05:51:43;;;;;;;15.60;4.45;;;;;;;8.58;99.35;100898.56;8349967;28;20119;-57
2023/12/27 05:55:44;;;;;;;13.52;4.20;;;;;;;8.70;99.02;100892.22;8339089;28;20041;-57
2023/12/27 05:59:45;;;;;;;11.75;4.60;;;;;;;8.61;99.22;100893.81;8340452;28;20554;-57
2023/12/27 06:03:46;;;;;;;16.33;4.35;;;;;;;8.63;98.96;100896.38;8338397;28;20388;-58
2023/12/27 06:07:47;;;;;;;13.43;4.88;;;;;;;8.64;99.48;100876.53;8340323;28;20038;-58
2023/12/27 06:11:47;;;;;;;11.95;4.82;;;;;;;8.72;99.58;100879.50;8285376;28;20491;-56
2023/12/27 06:15:47;;;;;;;22.30;5.30;;;;;;;8.80;99.93;100868.94;8283736;28;20499;-55
2023/12/27 06:19:48;;;;;;;10.55;4.22;;;;;;;8.93;99.38;100858.91;8286408;28;20041;-55
2023/12/27 06:23:48;;;;;;;9.40;3.85;;;;;;;8.99;98.87;100861.13;8288370;28;20045;-55
2023/12/27 06:27:49;;;;;;;14.10;4.22;;;;;;;9.08;98.88;100860.38;8291605;28;20048;-56
2023/12/27 06:31:49;;;;;;;9.50;3.80;;;;;;;9.04;98.38;100849.00;8283608;28;20261;-54
2023/12/27 06:35:50;;;;;;;11.60;3.80;;;;;;;9.07;98.87;100861.38;8282596;28;20123;-54
2023/12/27 06:39:50;;;;;;;10.65;3.85;;;;;;;9.08;98.42;100849.59;8338665;28;20029;-58
2023/12/27 06:43:51;;;;;;;10.75;3.85;;;;;;;9.13;98.37;100850.09;8340658;28;20703;-58
2023/12/27 06:47:51;;;;;;;8.68;4.60;;;;;;;9.14;98.58;100832.91;8346194;28;20144;-56
2023/12/27 06:51:52;;;;;;;11.40;4.55;;;;;;;9.19;98.49;100849.59;8340150;28;20244;-58
2023/12/27 06:55:52;;;;;;;11.80;3.63;;;;;;;9.23;98.54;100841.13;8339986;28;20290;-57
2023/12/27 06:59:53;;;;;;;13.60;4.30;;;;;;;9.22;98.75;100825.06;8342504;28;20049;-55
2023/12/27 07:03:54;;;;;;;8.00;3.47;;;;;;;9.19;99.45;100806.44;8339813;28;20060;-55
2023/12/27 07:07:55;;;;;;;8.32;4.20;;;;;;;9.39;99.45;100805.66;8341557;28;20038;-58
2023/12/27 07:11:55;;;;;;;8.25;3.10;;;;;;;9.41;99.03;100796.47;8337973;28;20028;-60
2023/12/27 07:15:56;;;;;;;9.95;4.07;;;;;;;9.45;98.66;100783.56;8334838;28;20029;-58
2023/12/27 07:19:56;;;;;;;6.95;3.05;;;;;;;9.48;99.15;100794.09;8336120;28;20033;-57
2023/12/27 07:23:57;;;;;;;14.02;3.80;;;;;;;9.53;99.03;100789.19;8338119;28;20037;-58
2023/12/27 07:27:57;;;;;;;10.32;3.45;;;;;;;9.57;99.30;100782.53;8335583;28;20087;-55
2023/12/27 07:31:58;;;;;;;8.75;3.03;;;;;;;9.62;99.22;100783.91;8342613;28;20037;-57
2023/12/27 07:35:58;;;;;;;7.57;3.58;;;;;;;9.66;98.93;100777.25;8344962;28;20123;-56
2023/12/27 07:39:59;;;;;;;9.27;3.60;;;;;;;9.72;99.28;100781.28;8310496;28;20091;-56
2023/12/27 07:43:59;;;;;;;5.72;3.25;;;;;;;9.87;99.43;100807.00;8283760;28;20068;-57
2023/12/27 07:47:59;;;;;;;7.10;3.78;;;;;;;9.84;99.23;100796.44;8283046;28;20045;-58
2023/12/27 07:52:00;;;;;;;6.43;2.92;;;;;;;9.87;99.25;100802.44;8307174;28;20531;-57
2023/12/27 07:56:00;;;;;;;7.38;3.72;;;;;;;9.86;99.66;100789.06;8328172;28;20029;-57
2023/12/27 08:00:01;;;;;;;6.65;3.05;;;;;;;9.94;99.37;100800.06;8344850;28;20049;-55
2023/12/27 08:04:01;;;;;;;10.98;3.63;;;;;;;9.96;99.30;100812.47;8346486;28;20083;-56
2023/12/27 08:08:04;;;;;;;9.07;3.03;;;;;;;9.97;99.69;100807.91;8337852;28;20033;-55
2023/12/27 08:12:04;;;;;;;9.43;3.22;;;;;;;10.04;99.19;100782.13;8336622;28;20033;-56
2023/12/27 08:16:07;;;;;;;6.82;3.20;;;;;;;10.07;99.22;100784.59;8330101;28;20086;-57
2023/12/27 08:20:08;;;;;;;7.45;4.13;;;;;;;10.10;98.97;100795.13;8330260;28;20045;-57
2023/12/27 08:24:09;;;;;;;11.15;3.60;;;;;;;10.02;99.55;100789.47;8330903;28;20091;-56
2023/12/27 08:28:11;;;;;;;9.02;3.05;;;;;;;10.17;100.00;100787.34;8334051;28;20120;-55
2023/12/27 08:32:11;;;;;;;7.22;3.05;;;;;;;10.20;100.00;100796.06;8332266;28;20044;-57
2023/12/27 08:36:11;;;;;;;9.10;4.97;;;;;;;10.19;100.00;100802.47;8336743;28;20045;-56
2023/12/27 08:40:12;;;;;;;10.70;5.63;;;;;;;10.23;100.00;100782.28;8348470;28;20049;-56
2023/12/27 08:44:12;;;;;;;14.20;6.55;;;;;;;10.25;100.00;100783.03;8347347;28;20485;-56
2023/12/27 08:48:13;;;;;;;13.77;8.85;;;;;;;10.37;100.00;100781.94;8341270;28;20050;-57
2023/12/27 08:52:13;;;;;;;11.45;6.70;;;;;;;10.45;100.00;100770.47;8340838;28;20522;-55
2023/12/27 08:56:14;;;;;;;9.80;6.30;;;;;;;10.63;100.00;100758.91;8338292;28;20057;-55
2023/12/27 09:00:18;;;;;;;8.60;4.55;;;;;;;10.79;100.00;100748.44;8342374;28;20079;-55
2023/12/27 09:04:20;;;;;;;9.45;3.53;;;;;;;10.94;100.00;100766.00;8339388;28;20033;-55
2023/12/27 09:08:21;;;;;;;4.03;2.80;;;;;;;11.06;100.00;100756.78;8339531;28;20045;-56
2023/12/27 09:12:21;;;;;;;5.15;2.42;;;;;;;11.11;100.00;100762.66;8339793;28;20057;-57
2023/12/27 09:16:22;;;;;;;4.93;2.67;;;;;;;11.18;99.66;100755.69;8343532;28;20045;-57
2023/12/27 09:20:22;;;;;;;3.33;2.28;;;;;;;11.23;99.84;100763.41;8338932;28;20119;-57
2023/12/27 09:24:23;;;;;;;3.60;2.35;;;;;;;11.23;99.76;100750.69;8342696;28;20063;-56
2023/12/27 09:28:27;;;;;;;3.08;2.17;;;;;;;11.42;99.28;100748.06;8339474;28;20124;-58
2023/12/27 09:32:27;;;;;;;5.70;2.23;;;;;;;11.58;97.62;100761.03;8344473;28;20039;-54
2023/12/27 09:36:28;;;;;;;5.07;1.55;;;;;;;11.64;96.97;100764.06;8343046;28;20034;-54
2023/12/27 09:40:28;;;;;;;1.75;1.25;;;;;;;11.80;95.80;100756.22;8347233;28;20558;-55
2023/12/27 09:44:32;;;;;;;4.65;1.50;;;;;;;11.81;95.84;100744.38;8347811;28;20473;-61
2023/12/27 09:48:36;;;;;;;2.90;1.20;;;;;;;11.95;94.79;100739.56;8343093;28;20499;-57
2023/12/27 09:52:39;;;;;;;3.20;1.27;;;;;;;12.04;94.78;100738.69;8340958;28;20065;-58
2023/12/27 09:56:40;;;;;;;2.45;0.80;;;;;;;12.05;94.07;100726.84;8343267;28;20045;-55
2023/12/27 10:00:45;;;;;;;2.38;0.80;;;;;;;12.27;93.26;100712.94;8338665;28;20041;-54
2023/12/27 10:05:12;;;;;;;2.00;0.68;;;;;;;12.29;92.68;100717.22;8338622;28;20033;-55
2023/12/27 10:09:13;;;;;;;1.95;0.60;;;;;;;12.49;91.34;100739.72;8344899;28;20509;-55
2023/12/27 10:13:14;;;;;;;1.25;0.70;;;;;;;12.63;90.01;100736.53;8342181;28;20246;-56
2023/12/27 10:17:14;;;;;;;2.35;0.50;;;;;;;12.64;89.57;100727.38;8344720;28;20045;-57
2023/12/27 10:21:16;;;;;;;1.40;0.68;;;;;;;12.75;88.48;100713.66;8339088;28;20111;-57
2023/12/27 10:25:17;;;;;;;1.08;0.50;;;;;;;12.80;87.49;100705.88;8341144;28;20041;-57
2023/12/27 10:29:19;;;;;;;0.68;0.32;;;;;;;12.88;85.56;100689.72;8343774;28;20107;-55
2023/12/27 10:33:21;;;;;;;0.60;0.50;;;;;;;13.00;85.43;100674.97;8345854;28;20107;-54
2023/12/27 10:37:22;;;;;;;0.65;0.50;;;;;;;12.98;85.63;100671.50;8349972;28;20447;-54
2023/12/27 10:41:23;;;;;;;1.73;0.60;;;;;;;12.89;86.54;100667.00;8349289;28;20063;-53
2023/12/27 10:45:23;;;;;;;1.10;0.55;;;;;;;12.80;86.85;100663.34;8342035;28;20041;-54
2023/12/27 10:49:27;;;;;;;2.53;1.20;;;;;;;12.86;86.07;100667.28;8343515;28;20040;-53
2023/12/27 10:53:32;;;;;;;3.28;0.60;;;;;;;12.96;85.43;100646.41;8345638;28;20566;-54
2023/12/27 10:57:33;;;;;;;3.35;0.60;;;;;;;13.13;83.63;100664.59;8346229;28;20033;-54
2023/12/27 11:01:37;;;;;;;2.45;0.45;;;;;;;13.04;83.56;100650.09;8338216;28;20041;-54
2023/12/27 11:05:39;;;;;;;1.52;0.50;;;;;;;13.10;83.27;100643.19;8342027;28;20388;-56
2023/12/27 11:09:41;;;;;;;1.58;0.50;;;;;;;13.16;81.88;100626.28;8338471;28;20045;-58
2023/12/27 11:13:42;;;;;;;2.58;0.40;;;;;;;13.37;80.84;100643.13;8334244;28;20431;-54
2023/12/27 11:17:45;;;;;;;1.92;0.40;;;;;;;13.24;81.91;100629.09;8340370;28;20530;-56
2023/12/27 11:21:47;;;;;;;2.22;0.70;;;;;;;13.21;82.16;100622.09;8347597;28;20499;-56
2023/12/27 11:25:48;;;;;;;2.55;0.52;;;;;;;13.20;81.44;100611.38;8341369;28;20128;-56
2023/12/27 11:29:48;;;;;;;2.45;0.68;;;;;;;13.15;81.57;100608.31;8333524;28;20046;-54
2023/12/27 11:33:51;;;;;;;4.72;0.60;;;;;;;13.30;80.44;100598.59;8336970;28;20581;-54
2023/12/27 11:38:11;;;;;;;3.05;0.70;;;;;;;13.36;80.11;100592.56;8341418;28;20036;-57
2023/12/27 11:42:15;;;;;;;6.70;0.80;;;;;;;13.34;80.23;100594.56;8340316;28;20169;-55
2023/12/27 11:46:24;;;;;;;5.90;0.65;;;;;;;13.45;79.75;100580.75;8337723;28;20124;-54
2023/12/27 11:50:27;;;;;;;3.50;0.50;;;;;;;13.35;80.61;100574.53;8343946;28;20070;-56
2023/12/27 11:54:28;;;;;;;5.00;1.08;;;;;;;13.40;80.44;100555.91;8339562;28;20429;-56
2023/12/27 11:58:35;;;;;;;2.83;0.68;;;;;;;13.52;80.42;100562.81;8341254;28;20037;-56
2023/12/27 12:02:43;;;;;;;3.22;0.80;;;;;;;13.63;80.16;100543.50;8333154;28;20124;-55
2023/12/27 12:06:58;;;;;;;5.18;0.95;;;;;;;13.71;79.83;100540.84;8330967;28;20072;-62
2023/12/27 12:11:09;;;;;;;7.88;1.00;;;;;;;13.69;79.55;100535.59;8329783;28;20128;-56
2023/12/27 12:15:10;;;;;;;7.13;1.30;;;;;;;13.98;78.39;100518.94;8341947;28;20078;-57
2023/12/27 12:19:12;;;;;;;4.18;0.85;;;;;;;14.08;77.37;100527.81;8344251;28;20106;-55
2023/12/27 12:23:13;;;;;;;2.97;1.15;;;;;;;14.14;77.12;100532.59;8344064;28;20470;-56
2023/12/27 12:27:14;;;;;;;4.28;1.05;;;;;;;14.09;77.29;100534.94;8349120;28;20127;-56
2023/12/27 12:31:15;;;;;;;5.13;0.93;;;;;;;13.99;77.88;100517.09;8350306;28;20039;-56
2023/12/27 12:35:16;;;;;;;5.55;1.10;;;;;;;14.18;76.63;100514.94;8349888;28;20426;-56
2023/12/27 12:39:18;;;;;;;11.07;3.92;;;;;;;14.30;76.47;100497.34;8349963;28;20118;-56
2023/12/27 12:43:19;;;;;;;7.95;2.00;;;;;;;14.10;76.86;100493.16;8346694;28;20067;-55
2023/12/27 12:47:20;;;;;;;4.80;1.67;;;;;;;14.10;76.69;100465.97;8351216;28;20041;-56
2023/12/27 12:51:21;;;;;;;8.02;1.48;;;;;;;13.99;76.51;100474.41;8348429;28;20037;-56
2023/12/27 12:55:28;;;;;;;5.07;1.17;;;;;;;13.99;77.27;100469.00;8348649;28;20040;-56
2023/12/27 12:59:31;;;;;;;5.03;1.20;;;;;;;13.98;77.11;100466.44;8348533;28;20087;-56
2023/12/27 13:03:34;;;;;;;6.85;1.70;;;;;;;13.85;77.38;100466.91;8344130;28;20392;-60
2023/12/27 13:07:34;;;;;;;5.45;1.27;;;;;;;13.72;78.38;100467.34;8349339;28;20408;-56
2023/12/27 13:11:35;;;;;;;3.45;1.58;;;;;;;13.72;78.25;100461.03;8339239;28;20045;-57
2023/12/27 13:15:36;;;;;;;5.72;1.13;;;;;;;13.70;78.54;100457.66;8332675;28;20037;-57
2023/12/27 13:19:36;;;;;;;9.60;1.73;;;;;;;13.63;79.02;100446.56;8342063;28;20514;-57
2023/12/27 13:23:37;;;;;;;5.50;1.50;;;;;;;13.66;78.82;100445.38;8346092;28;20418;-57
2023/12/27 13:27:38;;;;;;;11.02;1.67;;;;;;;13.52;79.04;100438.72;8346852;28;20519;-56
2023/12/27 13:31:38;;;;;;;14.18;2.30;;;;;;;13.55;78.88;100437.53;8344872;28;20051;-55
2023/12/27 13:35:38;;;;;;;10.57;2.15;;;;;;;13.50;78.63;100421.72;8345939;28;20056;-54
2023/12/27 13:39:39;;;;;;;8.38;1.90;;;;;;;13.44;78.75;100418.78;8347603;28;20062;-55
2023/12/27 13:43:39;;;;;;;8.18;1.40;;;;;;;13.47;78.17;100413.03;8347557;28;20506;-55
2023/12/27 13:47:40;;;;;;;8.02;1.90;;;;;;;13.30;79.15;100413.97;8345827;28;20384;-55
2023/12/27 13:51:41;;;;;;;10.60;2.20;;;;;;;13.29;79.11;100404.09;8345647;28;20295;-56
2023/12/27 13:55:41;;;;;;;7.18;1.30;;;;;;;13.20;79.58;100405.06;8335288;28;20265;-55
2023/12/27 13:59:45;;;;;;;7.45;1.60;;;;;;;13.21;79.45;100390.50;8335917;28;20055;-56
2023/12/27 14:03:46;;;;;;;5.30;1.48;;;;;;;13.35;78.56;100384.44;8332192;28;20041;-57
2023/12/27 14:07:48;;;;;;;6.05;1.48;;;;;;;13.46;77.87;100385.03;8332842;28;20045;-56
2023/12/27 14:11:51;;;;;;;8.00;1.40;;;;;;;13.21;78.83;100385.06;8335197;28;20088;-57
2023/12/27 14:15:52;;;;;;;2.60;0.90;;;;;;;13.21;78.44;100376.91;8334824;28;20038;-59
2023/12/27 14:19:52;;;;;;;4.45;1.40;;;;;;;13.24;78.20;100379.31;8332625;28;20033;-57
2023/12/27 14:23:53;;;;;;;3.63;1.40;;;;;;;13.13;78.84;100355.16;8335110;28;20041;-57
2023/12/27 14:27:53;;;;;;;5.10;1.17;;;;;;;13.11;79.08;100335.44;8346749;28;20570;-55
2023/12/27 14:31:54;;;;;;;11.65;1.50;;;;;;;13.03;78.95;100332.69;8340212;28;20057;-56
2023/12/27 14:35:54;;;;;;;6.65;1.48;;;;;;;13.04;79.03;100335.25;8347795;28;20495;-56
2023/12/27 14:39:55;;;;;;;5.30;1.20;;;;;;;12.93;79.08;100331.94;8344210;28;20052;-55
2023/12/27 14:43:56;;;;;;;5.75;1.40;;;;;;;12.65;81.33;100333.94;8337084;28;20056;-56
2023/12/27 14:47:56;;;;;;;12.23;2.55;;;;;;;12.26;84.98;100327.16;8338301;28;20405;-56
2023/12/27 14:51:56;;;;;;;8.05;2.80;;;;;;;11.90;88.58;100323.59;8333581;28;20033;-55
2023/12/27 14:55:58;;;;;;;5.80;2.10;;;;;;;11.72;90.45;100325.44;8338476;28;20542;-55
2023/12/27 14:59:58;;;;;;;9.30;2.20;;;;;;;11.60;90.68;100318.53;8335252;28;20339;-55
2023/12/27 15:03:59;;;;;;;7.50;2.17;;;;;;;11.72;89.40;100317.31;8341138;28;20037;-55
2023/12/27 15:07:59;;;;;;;9.00;2.53;;;;;;;11.77;89.04;100320.44;8344468;28;20033;-55
2023/12/27 15:11:59;;;;;;;9.05;2.85;;;;;;;11.74;88.83;100309.91;8341844;28;20040;-57
2023/12/27 15:16:00;;;;;;;3.50;2.13;;;;;;;11.85;87.75;100301.56;8344635;28;20033;-55
2023/12/27 15:20:00;;;;;;;9.27;2.78;;;;;;;11.79;87.74;100307.59;8343694;28;20137;-55
2023/12/27 15:24:01;;;;;;;5.78;2.50;;;;;;;11.69;87.78;100311.38;8340296;28;20049;-54
2023/12/27 15:28:04;;;;;;;11.45;4.00;;;;;;;11.62;87.91;100294.88;8344237;28;20431;-56
2023/12/27 15:32:05;;;;;;;8.32;3.05;;;;;;;11.67;88.00;100289.88;8339601;28;20510;-54
2023/12/27 15:36:06;;;;;;;10.18;2.90;;;;;;;11.68;87.62;100290.69;8336764;28;20147;-56
2023/12/27 15:40:07;;;;;;;7.82;2.53;;;;;;;11.41;88.63;100280.72;8345725;28;20041;-56
2023/12/27 15:44:08;;;;;;;6.90;2.50;;;;;;;11.47;87.92;100279.28;8341999;28;20503;-55
2023/12/27 15:48:08;;;;;;;7.85;2.28;;;;;;;11.51;87.92;100276.13;8340900;28;20119;-57
2023/12/27 15:52:09;;;;;;;7.72;2.72;;;;;;;11.49;87.54;100272.72;8345572;28;20061;-56
2023/12/27 15:56:20;;;;;;;8.77;3.05;;;;;;;11.50;87.50;100258.16;8341284;28;20063;-55
2023/12/27 16:00:21;;;;;;;10.60;2.55;;;;;;;11.27;88.21;100265.00;8337263;28;20492;-56
2023/12/27 16:04:23;;;;;;;9.57;2.90;;;;;;;11.34;87.96;100268.81;8342585;28;20410;-57
2023/12/27 16:08:23;;;;;;;10.35;2.95;;;;;;;11.37;87.29;100252.28;8345028;28;20438;-56
2023/12/27 16:12:25;;;;;;;14.48;3.10;;;;;;;11.28;87.89;100264.00;8339735;28;20049;-57
2023/12/27 16:16:25;;;;;;;8.75;2.40;;;;;;;11.50;86.75;100252.75;8342836;28;20029;-56
2023/12/27 16:20:26;;;;;;;6.15;2.38;;;;;;;11.57;86.15;100256.56;8336369;28;20038;-54
2023/12/27 16:24:26;;;;;;;8.38;3.13;;;;;;;11.36;86.54;100245.16;8334742;28;20040;-53
2023/12/27 16:28:27;;;;;;;7.88;2.58;;;;;;;11.30;87.16;100250.31;8342440;28;20090;-54
2023/12/27 16:32:28;;;;;;;10.73;2.88;;;;;;;11.35;86.83;100238.03;8329512;28;20029;-53
2023/12/27 16:36:29;;;;;;;6.70;3.05;;;;;;;11.29;86.65;100225.09;8330317;28;20037;-54
2023/12/27 16:40:30;;;;;;;6.65;3.38;;;;;;;11.32;86.52;100230.22;8332483;28;20487;-54
2023/12/27 16:44:34;;;;;;;11.38;3.33;;;;;;;11.32;86.28;100219.38;8338454;28;20037;-54
2023/12/27 16:48:35;;;;;;;;;;;;;;;11.22;86.88;100220.44;8338098;28;20095;-53
2023/12/27 16:52:36;;;;;;;8.40;2.50;;;;;;;11.08;87.45;100207.44;8329351;28;20008;-54
2023/12/27 16:56:37;;;;;;;10.35;2.88;;;;;;;10.96;88.06;100209.53;8334916;28;20218;-53
2023/12/27 17:00:39;;;;;;;9.57;2.92;;;;;;;10.95;88.01;100196.16;8333976;28;20042;-57
2023/12/27 17:04:39;;;;;;;7.35;2.80;;;;;;;10.96;87.66;100178.91;8339292;28;20051;-55
2023/12/27 17:08:39;;;;;;;10.15;2.88;;;;;;;10.99;87.96;100182.16;8335564;28;20049;-57
2023/12/27 17:12:43;;;;;;;10.43;2.45;;;;;;;10.98;87.27;100180.44;8336074;28;20042;-57
2023/12/27 17:16:44;;;;;;;5.45;2.80;;;;;;;10.97;87.28;100176.06;8338227;28;20059;-56
2023/12/27 17:20:45;;;;;;;5.18;2.72;;;;;;;10.93;87.42;100171.09;8338031;28;20067;-58
2023/12/27 17:24:45;;;;;;;11.65;2.90;;;;;;;10.81;87.88;100166.88;8339643;28;20052;-57
2023/12/27 17:28:45;;;;;;;4.32;2.25;;;;;;;10.77;88.14;100160.91;8340943;28;20041;-58
2023/12/27 17:32:46;;;;;;;12.13;3.08;;;;;;;10.81;87.74;100139.84;8355063;28;20129;-57
2023/12/27 17:36:46;;;;;;;9.02;3.00;;;;;;;10.71;88.25;100129.09;8357378;28;20040;-57
2023/12/27 17:40:47;;;;;;;8.85;3.05;;;;;;;10.61;88.36;100139.09;8344066;28;20045;-58
2023/12/27 17:44:47;;;;;;;9.02;2.65;;;;;;;10.48;88.92;100125.09;8339163;28;20076;-55
2023/12/27 17:48:48;;;;;;;6.78;2.95;;;;;;;10.27;89.86;100112.84;8338023;28;20051;-57
2023/12/27 17:52:48;;;;;;;11.07;3.75;;;;;;;10.39;89.36;100123.28;8336002;28;20128;-57
2023/12/27 17:56:50;;;;;;;8.93;3.05;;;;;;;10.38;88.89;100120.72;8339396;28;20119;-60
2023/12/27 18:00:54;;;;;;;8.02;3.10;;;;;;;10.34;87.86;100103.94;8335040;28;20504;-62
2023/12/27 18:04:55;;;;;;;8.40;3.80;;;;;;;10.56;85.94;100102.72;8338484;28;20076;-63
2023/12/27 18:08:56;;;;;;;12.75;2.85;;;;;;;10.56;84.59;100102.72;8332681;28;20049;-61
2023/12/27 18:12:59;;;;;;;5.45;2.13;;;;;;;10.77;82.52;100106.84;8336243;28;20051;-62
2023/12/27 18:16:59;;;;;;;9.63;2.22;;;;;;;10.90;81.18;100103.78;8336011;28;20041;-58
2023/12/27 18:21:00;;;;;;;7.55;2.00;;;;;;;11.20;79.68;100119.66;8335731;28;20088;-54
2023/12/27 18:25:01;;;;;;;6.18;1.90;;;;;;;11.19;77.90;100094.44;8336791;28;20033;-58
2023/12/27 18:29:02;;;;;;;7.10;2.10;;;;;;;11.20;77.26;100104.25;8337985;28;20083;-61
2023/12/27 18:33:03;;;;;;;5.90;1.50;;;;;;;11.34;76.07;100089.31;8340973;28;20072;-61
2023/12/27 18:37:04;;;;;;;6.97;1.75;;;;;;;11.25;75.43;100112.78;8334274;28;20219;-56
2023/12/27 18:41:05;;;;;;;4.65;2.00;;;;;;;11.32;74.38;100097.59;8332073;28;20072;-54